La Plata, Missouri
Current Conditions -  °F | °C
As of 11:55 AM on Thursday 30 Oct 2014 (Local Time) from KIRK Reporting Station
Scattered Clouds Scattered Clouds  
Wind Chill: 54°   Ceiling: Unl
Heat Index: 54°   Visibility: 10mi
Dew Point: 42°   Wind: 9mph
Humidity: 64%   Direction: 210°SSW
Pressure: 30.03"   Gusts: NA
Location:  40.02°N, 92.49°W
Report Text: KIRK 301655Z AUTO 21008KT 10SM SCT110 12/06 A3003 RMK AO2 SLP175 T01220056
Loading
Personal Weather Stations






























Interactive Weather Map
Tropical Storm Tracking
New forecast layout! Learn more

10-Day Weather Forecast

Advertisements
Track Severe Weather on mobile